sensor_id;sensor_type;location;lat;lon;timestamp;temperature;humidity
4209;DHT22;36320;48.860;2.380;2023-02-22T06:59:06;15.80;67.10
4209;DHT22;36320;48.860;2.380;2023-02-22T07:01:33;15.60;67.70
4209;DHT22;36320;48.860;2.380;2023-02-22T07:03:58;15.10;68.60
4209;DHT22;36320;48.860;2.380;2023-02-22T07:06:24;14.70;69.70
4209;DHT22;36320;48.860;2.380;2023-02-22T07:08:50;14.30;70.80
4209;DHT22;36320;48.860;2.380;2023-02-22T07:11:17;14.20;71.40
4209;DHT22;36320;48.860;2.380;2023-02-22T07:13:43;14.20;71.80
4209;DHT22;36320;48.860;2.380;2023-02-22T07:16:08;14.10;72.30
4209;DHT22;36320;48.860;2.380;2023-02-22T07:18:34;14.00;72.50
4209;DHT22;36320;48.860;2.380;2023-02-22T07:21:00;13.90;72.80
4209;DHT22;36320;48.860;2.380;2023-02-22T07:23:26;14.00;73.30
4209;DHT22;36320;48.860;2.380;2023-02-22T07:25:52;14.00;73.30
4209;DHT22;36320;48.860;2.380;2023-02-22T07:28:18;14.10;73.60
4209;DHT22;36320;48.860;2.380;2023-02-22T07:30:43;13.90;73.70
4209;DHT22;36320;48.860;2.380;2023-02-22T07:33:10;13.80;74.10
4209;DHT22;36320;48.860;2.380;2023-02-22T07:35:48;13.60;74.50
4209;DHT22;36320;48.860;2.380;2023-02-22T07:38:16;13.80;74.90
4209;DHT22;36320;48.860;2.380;2023-02-22T07:40:43;13.90;74.80
4209;DHT22;36320;48.860;2.380;2023-02-22T07:43:26;13.80;74.80
4209;DHT22;36320;48.860;2.380;2023-02-22T07:45:54;13.70;75.30
4209;DHT22;36320;48.860;2.380;2023-02-22T07:48:23;13.80;75.50
4209;DHT22;36320;48.860;2.380;2023-02-22T07:50:49;13.80;75.50
4209;DHT22;36320;48.860;2.380;2023-02-22T07:53:18;13.80;75.50
4209;DHT22;36320;48.860;2.380;2023-02-22T07:55:44;13.70;75.90
4209;DHT22;36320;48.860;2.380;2023-02-22T07:58:14;13.80;75.90
4209;DHT22;36320;48.860;2.380;2023-02-22T08:00:40;13.70;76.30
4209;DHT22;36320;48.860;2.380;2023-02-22T08:03:10;13.30;77.10
4209;DHT22;36320;48.860;2.380;2023-02-22T08:05:38;13.20;78.00
4209;DHT22;36320;48.860;2.380;2023-02-22T08:08:05;13.40;78.00
4209;DHT22;36320;48.860;2.380;2023-02-22T08:10:32;13.30;78.00
4209;DHT22;36320;48.860;2.380;2023-02-22T08:13:02;13.40;78.20
4209;DHT22;36320;48.860;2.380;2023-02-22T08:15:32;13.40;78.40
4209;DHT22;36320;48.860;2.380;2023-02-22T08:18:03;13.40;78.40
4209;DHT22;36320;48.860;2.380;2023-02-22T08:20:33;13.60;78.10
4209;DHT22;36320;48.860;2.380;2023-02-22T08:23:02;13.40;78.20
4209;DHT22;36320;48.860;2.380;2023-02-22T08:25:29;13.50;78.40
4209;DHT22;36320;48.860;2.380;2023-02-22T08:28:01;13.50;78.60
4209;DHT22;36320;48.860;2.380;2023-02-22T08:30:29;13.60;78.70
4209;DHT22;36320;48.860;2.380;2023-02-22T08:32:57;13.50;78.70
4209;DHT22;36320;48.860;2.380;2023-02-22T08:35:24;13.70;78.70
4209;DHT22;36320;48.860;2.380;2023-02-22T08:37:52;13.70;78.60
4209;DHT22;36320;48.860;2.380;2023-02-22T08:40:21;13.60;78.50
4209;DHT22;36320;48.860;2.380;2023-02-22T08:42:49;13.50;78.60
4209;DHT22;36320;48.860;2.380;2023-02-22T08:45:15;13.70;79.00
4209;DHT22;36320;48.860;2.380;2023-02-22T08:47:43;13.80;78.80
4209;DHT22;36320;48.860;2.380;2023-02-22T08:50:10;13.60;79.00
4209;DHT22;36320;48.860;2.380;2023-02-22T08:52:40;13.60;79.20
4209;DHT22;36320;48.860;2.380;2023-02-22T08:55:07;13.50;79.30
4209;DHT22;36320;48.860;2.380;2023-02-22T08:57:32;13.50;79.40
4209;DHT22;36320;48.860;2.380;2023-02-22T08:59:58;13.50;79.50
4209;DHT22;36320;48.860;2.380;2023-02-22T09:02:24;13.60;79.80
4209;DHT22;36320;48.860;2.380;2023-02-22T09:04:50;13.70;79.30
4209;DHT22;36320;48.860;2.380;2023-02-22T09:07:16;13.80;79.10
4209;DHT22;36320;48.860;2.380;2023-02-22T09:09:43;13.80;78.90
4209;DHT22;36320;48.860;2.380;2023-02-22T09:12:09;13.80;79.10
4209;DHT22;36320;48.860;2.380;2023-02-22T09:14:35;13.80;79.00
4209;DHT22;36320;48.860;2.380;2023-02-22T09:17:02;14.00;79.00
4209;DHT22;36320;48.860;2.380;2023-02-22T09:19:28;14.10;78.70
4209;DHT22;36320;48.860;2.380;2023-02-22T09:21:57;14.00;78.40
4209;DHT22;36320;48.860;2.380;2023-02-22T09:24:26;13.80;78.30
4209;DHT22;36320;48.860;2.380;2023-02-22T09:26:52;13.80;79.00
4209;DHT22;36320;48.860;2.380;2023-02-22T09:29:23;13.50;79.30
4209;DHT22;36320;48.860;2.380;2023-02-22T09:31:51;13.40;79.60
4209;DHT22;36320;48.860;2.380;2023-02-22T09:34:18;13.40;79.90
4209;DHT22;36320;48.860;2.380;2023-02-22T09:36:46;13.60;79.70
4209;DHT22;36320;48.860;2.380;2023-02-22T09:39:16;13.60;79.40
4209;DHT22;36320;48.860;2.380;2023-02-22T09:44:22;13.60;79.40
4209;DHT22;36320;48.860;2.380;2023-02-22T09:46:50;13.70;80.20
4209;DHT22;36320;48.860;2.380;2023-02-22T09:49:37;13.60;79.10
4209;DHT22;36320;48.860;2.380;2023-02-22T09:52:10;13.80;79.20
4209;DHT22;36320;48.860;2.380;2023-02-22T09:54:39;13.90;78.80
4209;DHT22;36320;48.860;2.380;2023-02-22T09:57:12;14.00;78.70
4209;DHT22;36320;48.860;2.380;2023-02-22T10:00:20;14.10;78.30
4209;DHT22;36320;48.860;2.380;2023-02-22T10:05:35;14.20;78.30
4209;DHT22;36320;48.860;2.380;2023-02-22T10:08:13;14.40;78.10
4209;DHT22;36320;48.860;2.380;2023-02-22T10:10:42;14.30;78.50
4209;DHT22;36320;48.860;2.380;2023-02-22T10:13:24;14.30;77.80
4209;DHT22;36320;48.860;2.380;2023-02-22T10:16:04;14.40;77.60
4209;DHT22;36320;48.860;2.380;2023-02-22T10:18:48;14.40;77.30
4209;DHT22;36320;48.860;2.380;2023-02-22T10:21:58;14.20;77.40
4209;DHT22;36320;48.860;2.380;2023-02-22T10:27:32;14.40;77.40
4209;DHT22;36320;48.860;2.380;2023-02-22T10:32:46;14.20;77.50
4209;DHT22;36320;48.860;2.380;2023-02-22T10:35:28;14.10;77.50
4209;DHT22;36320;48.860;2.380;2023-02-22T10:37:59;14.00;77.70
4209;DHT22;36320;48.860;2.380;2023-02-22T10:40:27;14.20;77.90
4209;DHT22;36320;48.860;2.380;2023-02-22T10:43:05;14.40;77.60
4209;DHT22;36320;48.860;2.380;2023-02-22T10:45:33;14.60;77.40
4209;DHT22;36320;48.860;2.380;2023-02-22T10:48:14;14.80;77.00
4209;DHT22;36320;48.860;2.380;2023-02-22T10:50:45;14.90;76.80
4209;DHT22;36320;48.860;2.380;2023-02-22T10:53:12;14.70;76.40
4209;DHT22;36320;48.860;2.380;2023-02-22T10:56:18;14.40;76.80
4209;DHT22;36320;48.860;2.380;2023-02-22T10:59:03;14.40;77.30
4209;DHT22;36320;48.860;2.380;2023-02-22T11:01:37;14.20;77.40
4209;DHT22;36320;48.860;2.380;2023-02-22T11:04:14;14.10;77.80
4209;DHT22;36320;48.860;2.380;2023-02-22T11:09:20;14.10;77.80
4209;DHT22;36320;48.860;2.380;2023-02-22T11:11:48;14.10;78.10
4209;DHT22;36320;48.860;2.380;2023-02-22T11:14:30;14.00;78.00
4209;DHT22;36320;48.860;2.380;2023-02-22T11:16:57;14.10;78.40
4209;DHT22;36320;48.860;2.380;2023-02-22T11:19:29;13.90;78.10
4209;DHT22;36320;48.860;2.380;2023-02-22T11:24:59;13.90;78.60
4209;DHT22;36320;48.860;2.380;2023-02-22T11:27:43;14.00;79.00
4209;DHT22;36320;48.860;2.380;2023-02-22T11:30:31;14.00;78.70
4209;DHT22;36320;48.860;2.380;2023-02-22T11:35:36;14.00;78.40
4209;DHT22;36320;48.860;2.380;2023-02-22T11:38:26;14.10;78.70
4209;DHT22;36320;48.860;2.380;2023-02-22T11:44:19;14.20;78.40
4209;DHT22;36320;48.860;2.380;2023-02-22T11:46:46;14.00;78.80
4209;DHT22;36320;48.860;2.380;2023-02-22T11:49:13;13.80;78.90
4209;DHT22;36320;48.860;2.380;2023-02-22T12:00:33;14.20;78.70
4209;DHT22;36320;48.860;2.380;2023-02-22T12:12:58;14.20;78.60
4209;DHT22;36320;48.860;2.380;2023-02-22T12:15:55;14.20;78.60
4209;DHT22;36320;48.860;2.380;2023-02-22T12:18:49;14.40;78.70
4209;DHT22;36320;48.860;2.380;2023-02-22T12:21:21;14.60;78.30
4209;DHT22;36320;48.860;2.380;2023-02-22T12:23:59;14.30;78.00
4209;DHT22;36320;48.860;2.380;2023-02-22T12:26:36;14.00;78.90
4209;DHT22;36320;48.860;2.380;2023-02-22T12:35:11;14.40;78.70
4209;DHT22;36320;48.860;2.380;2023-02-22T12:46:45;14.50;78.10
4209;DHT22;36320;48.860;2.380;2023-02-22T12:51:44;14.40;77.60
4209;DHT22;36320;48.860;2.380;2023-02-22T12:56:53;13.90;78.40
4209;DHT22;36320;48.860;2.380;2023-02-22T12:59:37;14.10;78.40
4209;DHT22;36320;48.860;2.380;2023-02-22T13:04:51;13.90;78.60
4209;DHT22;36320;48.860;2.380;2023-02-22T13:07:47;13.90;78.70
4209;DHT22;36320;48.860;2.380;2023-02-22T13:18:19;14.00;78.40
4209;DHT22;36320;48.860;2.380;2023-02-22T13:20:48;14.10;78.60
4209;DHT22;36320;48.860;2.380;2023-02-22T13:23:42;13.90;78.60
4209;DHT22;36320;48.860;2.380;2023-02-22T13:26:38;14.00;78.80
4209;DHT22;36320;48.860;2.380;2023-02-22T13:29:33;14.20;78.70
4209;DHT22;36320;48.860;2.380;2023-02-22T13:53:55;14.40;78.40
4209;DHT22;36320;48.860;2.380;2023-02-22T13:56:24;14.30;78.10
4209;DHT22;36320;48.860;2.380;2023-02-22T13:59:06;14.30;78.30
4209;DHT22;36320;48.860;2.380;2023-02-22T14:01:47;14.20;78.20
4209;DHT22;36320;48.860;2.380;2023-02-22T14:04:35;14.10;78.60
4209;DHT22;36320;48.860;2.380;2023-02-22T14:09:51;14.00;78.50
4209;DHT22;36320;48.860;2.380;2023-02-22T14:15:19;13.90;79.00
4209;DHT22;36320;48.860;2.380;2023-02-22T14:22:46;14.20;78.70
4209;DHT22;36320;48.860;2.380;2023-02-22T14:25:37;14.20;78.70
4209;DHT22;36320;48.860;2.380;2023-02-22T14:31:12;14.10;78.80
4209;DHT22;36320;48.860;2.380;2023-02-22T14:37:21;14.10;78.60
4209;DHT22;36320;48.860;2.380;2023-02-22T14:39:59;14.10;79.10
4209;DHT22;36320;48.860;2.380;2023-02-22T14:42:40;14.00;79.00
4209;DHT22;36320;48.860;2.380;2023-02-22T14:47:43;13.70;79.80
4209;DHT22;36320;48.860;2.380;2023-02-22T14:50:22;13.70;80.50
4209;DHT22;36320;48.860;2.380;2023-02-22T14:53:04;13.70;80.60
4209;DHT22;36320;48.860;2.380;2023-02-22T14:55:40;13.60;80.90
4209;DHT22;36320;48.860;2.380;2023-02-22T15:00:49;13.60;81.30
4209;DHT22;36320;48.860;2.380;2023-02-22T15:03:33;13.80;81.70
4209;DHT22;36320;48.860;2.380;2023-02-22T15:06:15;13.90;81.70
4209;DHT22;36320;48.860;2.380;2023-02-22T15:08:43;14.20;81.90
4209;DHT22;36320;48.860;2.380;2023-02-22T15:11:28;14.20;81.50
4209;DHT22;36320;48.860;2.380;2023-02-22T15:13:58;14.20;81.90
4209;DHT22;36320;48.860;2.380;2023-02-22T15:16:33;14.20;82.00
4209;DHT22;36320;48.860;2.380;2023-02-22T15:19:04;14.20;82.00
4209;DHT22;36320;48.860;2.380;2023-02-22T15:24:24;14.30;82.00
4209;DHT22;36320;48.860;2.380;2023-02-22T15:26:54;14.30;82.10
4209;DHT22;36320;48.860;2.380;2023-02-22T15:29:24;14.20;81.90
4209;DHT22;36320;48.860;2.380;2023-02-22T15:31:54;12.20;79.70
4209;DHT22;36320;48.860;2.380;2023-02-22T15:34:32;13.60;81.80
4209;DHT22;36320;48.860;2.380;2023-02-22T15:37:19;13.80;81.80
4209;DHT22;36320;48.860;2.380;2023-02-22T15:39:50;13.80;81.90
4209;DHT22;36320;48.860;2.380;2023-02-22T15:42:24;13.90;81.30
4209;DHT22;36320;48.860;2.380;2023-02-22T15:44:52;13.80;81.10
4209;DHT22;36320;48.860;2.380;2023-02-22T15:47:25;14.00;81.10
4209;DHT22;36320;48.860;2.380;2023-02-22T15:50:15;14.20;81.00
4209;DHT22;36320;48.860;2.380;2023-02-22T15:52:52;14.20;80.50
4209;DHT22;36320;48.860;2.380;2023-02-22T15:55:21;14.10;80.50
4209;DHT22;36320;48.860;2.380;2023-02-22T15:57:48;14.00;80.70
4209;DHT22;36320;48.860;2.380;2023-02-22T16:00:22;14.20;80.70
4209;DHT22;36320;48.860;2.380;2023-02-22T16:02:49;14.40;80.60
4209;DHT22;36320;48.860;2.380;2023-02-22T16:05:16;14.50;80.30
4209;DHT22;36320;48.860;2.380;2023-02-22T16:07:48;14.40;80.20
4209;DHT22;36320;48.860;2.380;2023-02-22T16:10:26;14.10;79.90
4209;DHT22;36320;48.860;2.380;2023-02-22T16:13:22;14.00;79.80
4209;DHT22;36320;48.860;2.380;2023-02-22T16:16:20;13.90;80.00
4209;DHT22;36320;48.860;2.380;2023-02-22T16:18:50;13.70;79.90
4209;DHT22;36320;48.860;2.380;2023-02-22T16:21:18;13.80;80.00
4209;DHT22;36320;48.860;2.380;2023-02-22T16:23:50;14.00;80.00
4209;DHT22;36320;48.860;2.380;2023-02-22T16:29:05;14.10;79.60
4209;DHT22;36320;48.860;2.380;2023-02-22T16:31:34;14.20;79.60
4209;DHT22;36320;48.860;2.380;2023-02-22T16:34:03;14.20;79.30
4209;DHT22;36320;48.860;2.380;2023-02-22T16:36:44;14.20;79.30
4209;DHT22;36320;48.860;2.380;2023-02-22T16:39:26;14.10;79.10
4209;DHT22;36320;48.860;2.380;2023-02-22T16:41:55;13.90;79.50
4209;DHT22;36320;48.860;2.380;2023-02-22T16:44:21;14.00;79.60
4209;DHT22;36320;48.860;2.380;2023-02-22T16:46:50;14.10;79.40
4209;DHT22;36320;48.860;2.380;2023-02-22T16:49:26;14.00;79.30
4209;DHT22;36320;48.860;2.380;2023-02-22T16:51:53;13.80;79.60
4209;DHT22;36320;48.860;2.380;2023-02-22T16:54:29;13.70;79.90
4209;DHT22;36320;48.860;2.380;2023-02-22T16:57:00;13.70;80.10
4209;DHT22;36320;48.860;2.380;2023-02-22T16:59:32;13.80;80.10
4209;DHT22;36320;48.860;2.380;2023-02-22T17:02:01;13.90;80.10
4209;DHT22;36320;48.860;2.380;2023-02-22T17:04:32;13.90;79.80
4209;DHT22;36320;48.860;2.380;2023-02-22T17:06:57;14.10;79.90
4209;DHT22;36320;48.860;2.380;2023-02-22T17:09:23;13.90;79.60
4209;DHT22;36320;48.860;2.380;2023-02-22T17:11:51;13.80;79.80
4209;DHT22;36320;48.860;2.380;2023-02-22T17:14:23;13.70;80.00
4209;DHT22;36320;48.860;2.380;2023-02-22T17:16:52;13.80;80.20
4209;DHT22;36320;48.860;2.380;2023-02-22T17:19:21;13.90;80.00
4209;DHT22;36320;48.860;2.380;2023-02-22T17:21:48;13.90;79.90
4209;DHT22;36320;48.860;2.380;2023-02-22T17:24:21;13.90;80.00
4209;DHT22;36320;48.860;2.380;2023-02-22T17:26:48;13.80;79.90
4209;DHT22;36320;48.860;2.380;2023-02-22T17:29:14;13.80;80.00
4209;DHT22;36320;48.860;2.380;2023-02-22T17:31:42;13.70;80.30
4209;DHT22;36320;48.860;2.380;2023-02-22T17:34:08;13.60;80.40
4209;DHT22;36320;48.860;2.380;2023-02-22T17:36:34;13.60;80.40
4209;DHT22;36320;48.860;2.380;2023-02-22T17:39:04;13.50;80.30
4209;DHT22;36320;48.860;2.380;2023-02-22T17:41:31;13.70;80.30
4209;DHT22;36320;48.860;2.380;2023-02-22T17:43:56;13.70;80.20
4209;DHT22;36320;48.860;2.380;2023-02-22T17:46:23;13.80;80.20
4209;DHT22;36320;48.860;2.380;2023-02-22T17:48:52;13.80;80.30
4209;DHT22;36320;48.860;2.380;2023-02-22T17:51:23;13.80;81.10
4209;DHT22;36320;48.860;2.380;2023-02-22T17:53:49;13.80;80.20
4209;DHT22;36320;48.860;2.380;2023-02-22T17:56:18;13.90;80.10
4209;DHT22;36320;48.860;2.380;2023-02-22T17:58:49;13.90;80.00
4209;DHT22;36320;48.860;2.380;2023-02-22T18:01:19;13.90;80.00
4209;DHT22;36320;48.860;2.380;2023-02-22T18:03:45;13.90;79.80
4209;DHT22;36320;48.860;2.380;2023-02-22T18:06:16;13.80;79.60
4209;DHT22;36320;48.860;2.380;2023-02-22T18:08:42;13.90;79.50
4209;DHT22;36320;48.860;2.380;2023-02-22T18:11:07;13.80;79.20
4209;DHT22;36320;48.860;2.380;2023-02-22T18:13:33;13.90;79.30
4209;DHT22;36320;48.860;2.380;2023-02-22T18:15:59;13.90;79.20
4209;DHT22;36320;48.860;2.380;2023-02-22T18:18:26;13.80;79.10
4209;DHT22;36320;48.860;2.380;2023-02-22T18:20:52;13.80;79.30
4209;DHT22;36320;48.860;2.380;2023-02-22T18:23:26;13.80;79.00
4209;DHT22;36320;48.860;2.380;2023-02-22T18:25:54;13.60;79.30
4209;DHT22;36320;48.860;2.380;2023-02-22T18:28:20;13.50;79.40
4209;DHT22;36320;48.860;2.380;2023-02-22T18:30:49;13.60;79.60
4209;DHT22;36320;48.860;2.380;2023-02-22T18:33:15;13.60;79.30
4209;DHT22;36320;48.860;2.380;2023-02-22T18:35:46;13.60;79.50
4209;DHT22;36320;48.860;2.380;2023-02-22T18:38:18;13.50;79.70
4209;DHT22;36320;48.860;2.380;2023-02-22T18:41:20;13.40;79.80
4209;DHT22;36320;48.860;2.380;2023-02-22T18:43:50;13.40;80.30
4209;DHT22;36320;48.860;2.380;2023-02-22T18:46:23;13.50;80.40
4209;DHT22;36320;48.860;2.380;2023-02-22T18:48:52;13.50;80.50
4209;DHT22;36320;48.860;2.380;2023-02-22T18:51:19;13.40;80.60
4209;DHT22;36320;48.860;2.380;2023-02-22T18:53:45;13.30;80.90
4209;DHT22;36320;48.860;2.380;2023-02-22T18:56:21;13.40;81.00
4209;DHT22;36320;48.860;2.380;2023-02-22T18:58:53;13.30;81.00
4209;DHT22;36320;48.860;2.380;2023-02-22T19:01:20;13.40;81.20
4209;DHT22;36320;48.860;2.380;2023-02-22T19:03:46;13.30;81.30
4209;DHT22;36320;48.860;2.380;2023-02-22T19:06:13;13.20;81.40
4209;DHT22;36320;48.860;2.380;2023-02-22T19:08:43;13.20;81.80
4209;DHT22;36320;48.860;2.380;2023-02-22T19:11:14;13.00;82.00
4209;DHT22;36320;48.860;2.380;2023-02-22T19:13:48;13.00;82.40
4209;DHT22;36320;48.860;2.380;2023-02-22T19:16:18;13.00;82.70
4209;DHT22;36320;48.860;2.380;2023-02-22T19:18:48;13.20;82.70
4209;DHT22;36320;48.860;2.380;2023-02-22T19:21:14;13.20;82.70
4209;DHT22;36320;48.860;2.380;2023-02-22T19:23:42;13.30;82.80
4209;DHT22;36320;48.860;2.380;2023-02-22T19:26:12;13.20;83.10
4209;DHT22;36320;48.860;2.380;2023-02-22T19:28:43;13.40;82.90
4209;DHT22;36320;48.860;2.380;2023-02-22T19:31:21;13.50;82.60
4209;DHT22;36320;48.860;2.380;2023-02-22T19:33:51;13.40;82.20
4209;DHT22;36320;48.860;2.380;2023-02-22T19:36:20;13.40;82.30
4209;DHT22;36320;48.860;2.380;2023-02-22T19:41:26;13.40;82.60
4209;DHT22;36320;48.860;2.380;2023-02-22T19:43:53;13.20;83.50
4209;DHT22;36320;48.860;2.380;2023-02-22T19:46:21;12.80;82.50
4209;DHT22;36320;48.860;2.380;2023-02-22T19:48:54;13.30;83.00
4209;DHT22;36320;48.860;2.380;2023-02-22T19:51:22;13.20;82.80
4209;DHT22;36320;48.860;2.380;2023-02-22T19:53:51;13.20;83.00
